createdAt,value
2018-06-30T00:00:13.859Z,20.10
2018-06-30T00:02:43.237Z,20.20
2018-06-30T00:05:15.789Z,20.20
2018-06-30T00:07:45.467Z,20.20
2018-06-30T00:10:17.963Z,20.20
2018-06-30T00:12:47.361Z,20.20
2018-06-30T00:15:16.629Z,20.10
2018-06-30T00:17:46.073Z,20.10
2018-06-30T00:20:15.612Z,20.10
2018-06-30T00:22:45.045Z,20.10
2018-06-30T00:25:14.751Z,20.00
2018-06-30T00:27:44.261Z,20.00
2018-06-30T00:30:13.773Z,19.90
2018-06-30T00:32:43.063Z,19.90
2018-06-30T00:35:12.285Z,19.90
2018-06-30T00:37:41.663Z,19.90
2018-06-30T00:40:11.071Z,19.90
2018-06-30T00:42:40.894Z,19.90
2018-06-30T00:45:10.333Z,19.90
2018-06-30T00:47:39.887Z,19.90
2018-06-30T00:50:09.295Z,19.90
2018-06-30T00:52:38.603Z,19.80
2018-06-30T00:55:08.074Z,19.80
2018-06-30T00:57:37.449Z,19.80
2018-06-30T01:00:07.058Z,19.70
2018-06-30T01:02:36.423Z,19.70
2018-06-30T01:05:05.800Z,19.70
2018-06-30T01:07:35.171Z,19.70
2018-06-30T01:10:04.536Z,19.60
2018-06-30T01:12:34.335Z,19.60
2018-06-30T01:15:03.736Z,19.60
2018-06-30T01:17:33.176Z,19.60
2018-06-30T01:20:02.573Z,19.60
2018-06-30T01:22:32.146Z,19.60
2018-06-30T01:25:01.625Z,19.60
2018-06-30T01:27:31.101Z,19.60
2018-06-30T01:30:00.451Z,19.60
2018-06-30T01:32:29.844Z,19.50
2018-06-30T01:34:59.394Z,19.60
2018-06-30T01:37:28.755Z,19.60
2018-06-30T01:39:58.146Z,19.50
2018-06-30T01:42:27.613Z,19.50
2018-06-30T01:44:57.018Z,19.50
2018-06-30T01:47:26.686Z,19.50
2018-06-30T01:49:56.186Z,19.50
2018-06-30T01:52:25.841Z,19.50
2018-06-30T01:54:55.424Z,19.50
2018-06-30T01:57:24.930Z,19.50
2018-06-30T01:59:54.397Z,19.40
2018-06-30T02:02:23.970Z,19.40
2018-06-30T02:04:53.422Z,19.40
2018-06-30T02:07:22.816Z,19.40
2018-06-30T02:09:51.965Z,19.40
2018-06-30T02:12:21.362Z,19.40
2018-06-30T02:14:50.729Z,19.40
2018-06-30T02:17:19.975Z,19.40
2018-06-30T02:19:49.206Z,19.40
2018-06-30T02:22:18.499Z,19.40
2018-06-30T02:24:47.701Z,19.40
2018-06-30T02:27:17.056Z,19.40
2018-06-30T02:29:46.483Z,19.40
2018-06-30T02:32:16.043Z,19.40
2018-06-30T02:34:45.460Z,19.30
2018-06-30T02:37:14.835Z,19.30
2018-06-30T02:39:44.299Z,19.30
2018-06-30T02:42:13.594Z,19.40
2018-06-30T02:44:42.922Z,19.30
2018-06-30T02:47:12.534Z,19.30
2018-06-30T02:49:41.923Z,19.30
2018-06-30T02:52:11.350Z,19.20
2018-06-30T02:54:40.786Z,19.20
2018-06-30T02:57:11.201Z,19.20
2018-06-30T02:59:40.655Z,19.20
2018-06-30T03:02:10.143Z,19.20
2018-06-30T03:04:39.485Z,19.20
2018-06-30T03:07:08.839Z,19.20
2018-06-30T03:09:39.738Z,19.20
2018-06-30T03:12:09.219Z,19.20
2018-06-30T03:14:38.495Z,19.20
2018-06-30T03:17:08.374Z,19.20
2018-06-30T03:19:37.785Z,19.20
2018-06-30T03:22:07.178Z,19.20
2018-06-30T03:24:37.346Z,19.10
2018-06-30T03:27:06.909Z,19.10
2018-06-30T03:29:36.433Z,19.10
2018-06-30T03:32:06.324Z,19.10
2018-06-30T03:34:36.044Z,19.20
2018-06-30T03:37:05.794Z,19.10
2018-06-30T03:39:35.244Z,19.20
2018-06-30T03:42:04.741Z,19.20
2018-06-30T03:44:34.362Z,19.20
2018-06-30T03:47:03.744Z,19.20
2018-06-30T03:49:34.098Z,19.20
2018-06-30T03:52:03.350Z,19.30
2018-06-30T03:54:32.952Z,19.30
2018-06-30T03:57:02.449Z,19.30
2018-06-30T03:59:32.131Z,19.30
2018-06-30T04:02:01.618Z,19.40
2018-06-30T04:04:31.154Z,19.40
2018-06-30T04:07:00.854Z,19.40
2018-06-30T04:09:30.384Z,19.40
2018-06-30T04:11:59.848Z,19.40
2018-06-30T04:14:29.424Z,19.40
2018-06-30T04:16:58.859Z,19.40
2018-06-30T04:19:29.343Z,19.40
2018-06-30T04:21:59.205Z,19.40
2018-06-30T04:24:29.004Z,19.50
2018-06-30T04:26:58.439Z,19.50
2018-06-30T04:29:28.220Z,19.50
2018-06-30T04:31:57.628Z,19.50
2018-06-30T04:34:27.128Z,19.60
2018-06-30T04:36:56.646Z,19.60
2018-06-30T04:39:26.319Z,19.60
2018-06-30T04:41:56.091Z,19.60
2018-06-30T04:44:25.978Z,19.60
2018-06-30T04:46:55.526Z,19.60
2018-06-30T04:49:24.864Z,19.60
2018-06-30T04:51:54.440Z,19.70
2018-06-30T04:54:23.866Z,19.70
2018-06-30T04:56:53.417Z,19.80
2018-06-30T04:59:22.774Z,19.80
2018-06-30T05:01:52.433Z,19.90
2018-06-30T05:04:22.202Z,20.00
2018-06-30T05:06:52.665Z,20.10
2018-06-30T05:09:23.019Z,20.10
2018-06-30T05:11:52.792Z,20.10
2018-06-30T05:14:23.941Z,20.20
2018-06-30T05:16:53.396Z,20.20
2018-06-30T05:19:22.641Z,20.20
2018-06-30T05:21:52.630Z,20.20
2018-06-30T05:24:22.343Z,20.30
2018-06-30T05:26:51.950Z,20.30
2018-06-30T05:29:21.491Z,20.30
2018-06-30T05:31:51.049Z,20.30
2018-06-30T05:34:25.682Z,20.30
2018-06-30T05:36:56.360Z,20.40
2018-06-30T05:39:26.208Z,20.40
2018-06-30T05:41:55.561Z,20.50
2018-06-30T05:44:25.130Z,20.50
2018-06-30T05:49:24.803Z,20.50
2018-06-30T05:51:54.282Z,20.50
2018-06-30T05:54:23.679Z,20.50
2018-06-30T05:56:52.964Z,20.50
2018-06-30T05:59:22.542Z,20.50
2018-06-30T06:01:54.491Z,20.50
2018-06-30T06:04:23.928Z,20.50
2018-06-30T06:06:53.378Z,20.40
2018-06-30T06:09:22.871Z,20.50
2018-06-30T06:11:52.594Z,20.50
2018-06-30T06:14:22.251Z,20.60
2018-06-30T06:16:52.297Z,20.70
2018-06-30T06:19:21.504Z,20.70
2018-06-30T06:21:51.982Z,20.70
2018-06-30T06:24:21.559Z,20.80
2018-06-30T06:26:50.994Z,20.90
2018-06-30T06:29:20.582Z,21.00
2018-06-30T06:31:50.379Z,21.20
2018-06-30T06:34:19.712Z,21.30
2018-06-30T06:36:51.488Z,21.60
2018-06-30T06:39:21.104Z,21.70
2018-06-30T06:44:21.376Z,22.00
2018-06-30T06:46:57.992Z,22.10
2018-06-30T06:49:27.719Z,22.40
2018-06-30T06:52:00.892Z,22.80
2018-06-30T06:54:35.083Z,23.00
2018-06-30T06:57:05.265Z,23.40
2018-06-30T06:59:34.794Z,23.50
2018-06-30T07:02:04.984Z,23.70
2018-06-30T07:04:34.552Z,23.60
2018-06-30T07:07:04.234Z,23.50
2018-06-30T07:09:33.566Z,23.50
2018-06-30T07:12:03.120Z,23.50
2018-06-30T07:14:32.664Z,23.40
2018-06-30T07:17:02.495Z,23.20
2018-06-30T07:19:31.896Z,23.10
2018-06-30T07:22:01.795Z,23.10
2018-06-30T07:24:31.187Z,23.20
2018-06-30T07:27:00.656Z,23.30
2018-06-30T07:29:30.353Z,23.10
2018-06-30T07:31:59.771Z,23.00
2018-06-30T07:34:29.107Z,22.90
2018-06-30T07:36:58.448Z,22.60
2018-06-30T07:39:27.823Z,22.50
2018-06-30T07:41:57.183Z,22.40
2018-06-30T07:44:26.644Z,22.20
2018-06-30T07:46:56.226Z,22.10
2018-06-30T07:49:27.269Z,21.90
2018-06-30T07:51:56.622Z,21.70
2018-06-30T07:54:26.834Z,21.60
2018-06-30T07:56:56.447Z,21.60
2018-06-30T07:59:25.950Z,21.60
2018-06-30T08:01:57.948Z,21.70
2018-06-30T08:04:27.744Z,21.90
2018-06-30T08:06:57.238Z,22.10
2018-06-30T08:09:26.600Z,22.20
2018-06-30T08:11:56.063Z,22.50
2018-06-30T08:14:25.447Z,22.70
2018-06-30T08:16:54.992Z,23.00
2018-06-30T08:19:24.369Z,23.00
2018-06-30T08:24:46.071Z,22.60
2018-06-30T08:27:17.292Z,22.40
2018-06-30T08:29:47.417Z,22.10
2018-06-30T08:38:21.360Z,21.50
2018-06-30T08:40:52.154Z,21.50
2018-06-30T08:43:22.760Z,21.50
2018-06-30T08:45:52.381Z,21.40
2018-06-30T08:48:22.152Z,21.40
2018-06-30T08:50:52.946Z,21.40
2018-06-30T08:53:22.470Z,21.30
2018-06-30T08:55:54.411Z,21.20
2018-06-30T08:58:23.989Z,21.20
2018-06-30T09:00:53.781Z,21.20
2018-06-30T09:03:24.251Z,21.20
2018-06-30T09:06:02.042Z,21.20
2018-06-30T09:08:32.183Z,21.30
2018-06-30T09:11:03.656Z,21.30
2018-06-30T09:13:33.646Z,21.40
2018-06-30T09:16:03.658Z,21.40
2018-06-30T09:18:33.483Z,21.40
2018-06-30T09:21:03.059Z,21.30
2018-06-30T09:23:32.467Z,21.20
2018-06-30T09:26:02.109Z,21.20
2018-06-30T09:28:31.792Z,21.50
2018-06-30T09:31:01.361Z,21.80
2018-06-30T09:33:30.821Z,22.40
2018-06-30T09:36:00.233Z,22.90
2018-06-30T09:38:30.606Z,23.40
2018-06-30T09:41:03.181Z,24.00
2018-06-30T09:43:35.557Z,24.90
2018-06-30T09:46:05.314Z,25.90
2018-06-30T09:48:34.589Z,26.90
2018-06-30T09:51:04.062Z,27.90
2018-06-30T09:53:33.515Z,28.40
2018-06-30T09:56:02.996Z,28.70
2018-06-30T09:58:32.890Z,28.60
2018-06-30T10:01:07.455Z,28.40
2018-06-30T10:03:38.082Z,27.80
2018-06-30T10:06:07.718Z,27.30
2018-06-30T10:08:37.067Z,27.00
2018-06-30T10:11:06.397Z,26.90
2018-06-30T10:13:36.478Z,26.60
2018-06-30T10:16:06.454Z,26.70
2018-06-30T10:18:35.934Z,27.20
2018-06-30T10:21:06.196Z,27.60
2018-06-30T10:23:35.583Z,27.70
2018-06-30T10:26:05.025Z,28.10
2018-06-30T10:28:34.560Z,28.50
2018-06-30T10:33:34.594Z,29.40
2018-06-30T10:36:04.455Z,29.50
2018-06-30T10:38:34.119Z,29.30
2018-06-30T10:41:03.698Z,29.10
2018-06-30T10:43:36.737Z,29.20
2018-06-30T10:46:06.351Z,29.50
2018-06-30T10:48:37.424Z,29.80
2018-06-30T10:51:07.315Z,30.30
2018-06-30T10:53:36.824Z,30.20
2018-06-30T10:56:06.345Z,29.80
2018-06-30T10:58:35.726Z,29.80
2018-06-30T11:01:05.246Z,29.80
2018-06-30T11:03:34.448Z,29.90
2018-06-30T11:06:04.146Z,29.80
2018-06-30T11:08:33.738Z,29.70
2018-06-30T11:11:03.363Z,29.90
2018-06-30T11:13:39.283Z,29.70
2018-06-30T11:16:08.999Z,29.70
2018-06-30T11:18:38.646Z,30.00
2018-06-30T11:21:08.239Z,30.00
2018-06-30T11:23:37.554Z,30.00
2018-06-30T11:26:07.547Z,30.10
2018-06-30T11:28:36.911Z,30.40
2018-06-30T11:31:06.499Z,30.80
2018-06-30T11:36:05.764Z,31.30
2018-06-30T11:38:35.489Z,31.30
2018-06-30T11:41:05.289Z,31.20
2018-06-30T11:43:35.623Z,31.00
2018-06-30T11:46:04.958Z,31.00
2018-06-30T11:48:34.335Z,31.10
2018-06-30T11:51:03.675Z,31.30
2018-06-30T11:53:33.071Z,31.40
2018-06-30T11:56:02.407Z,31.40
2018-06-30T11:58:32.055Z,31.30
2018-06-30T12:01:01.690Z,31.50
2018-06-30T12:03:31.375Z,31.70
2018-06-30T12:06:00.922Z,31.80
2018-06-30T12:08:30.296Z,31.90
2018-06-30T12:10:59.718Z,32.10
2018-06-30T12:13:29.875Z,32.00
2018-06-30T12:16:00.943Z,32.00
2018-06-30T12:18:31.410Z,32.00
2018-06-30T12:21:01.045Z,31.70
2018-06-30T12:23:30.468Z,31.50
2018-06-30T12:26:00.466Z,31.10
2018-06-30T12:28:31.139Z,30.70
2018-06-30T12:31:00.808Z,30.50
2018-06-30T12:33:30.678Z,30.40
2018-06-30T12:36:00.388Z,30.30
2018-06-30T12:38:30.066Z,30.20
2018-06-30T12:40:59.613Z,30.00
2018-06-30T12:43:29.134Z,29.50
2018-06-30T12:45:58.434Z,29.20
2018-06-30T12:48:29.717Z,29.00
2018-06-30T12:54:40.685Z,28.70
2018-06-30T12:58:06.875Z,28.40
2018-06-30T13:00:37.831Z,28.10
2018-06-30T13:03:07.690Z,27.80
2018-06-30T13:05:37.755Z,27.70
2018-06-30T13:08:07.059Z,27.60
2018-06-30T13:10:38.556Z,27.60
2018-06-30T13:13:08.177Z,27.60
2018-06-30T13:15:38.730Z,27.70
2018-06-30T13:18:08.756Z,27.60
2018-06-30T13:20:39.361Z,27.50
2018-06-30T13:23:08.825Z,27.40
2018-06-30T13:25:38.773Z,27.40
2018-06-30T13:28:08.459Z,27.40
2018-06-30T13:30:37.960Z,27.40
2018-06-30T13:33:07.481Z,27.30
2018-06-30T13:35:37.976Z,27.10
2018-06-30T13:38:07.374Z,27.00
2018-06-30T13:40:37.389Z,26.90
2018-06-30T13:43:07.890Z,26.80
2018-06-30T13:45:37.399Z,26.70
2018-06-30T13:48:07.435Z,26.60
2018-06-30T13:50:37.929Z,26.70
2018-06-30T13:53:08.393Z,26.70
2018-06-30T13:55:37.960Z,26.60
2018-06-30T13:58:07.715Z,26.60
2018-06-30T14:00:37.325Z,26.50
2018-06-30T14:03:07.115Z,26.50
2018-06-30T14:05:36.587Z,26.50
2018-06-30T14:08:06.480Z,26.50
2018-06-30T14:10:36.534Z,26.50
2018-06-30T14:13:06.144Z,26.40
2018-06-30T14:15:35.627Z,26.30
2018-06-30T14:18:05.777Z,26.30
2018-06-30T14:20:35.214Z,26.30
2018-06-30T14:23:05.158Z,26.20
2018-06-30T14:25:34.897Z,26.20
2018-06-30T14:28:05.621Z,26.10
2018-06-30T14:30:35.153Z,26.00
2018-06-30T14:33:05.084Z,25.90
2018-06-30T14:35:36.517Z,25.80
2018-06-30T14:38:06.325Z,25.70
2018-06-30T14:40:36.703Z,25.60
2018-06-30T14:43:06.553Z,25.60
2018-06-30T14:45:36.245Z,25.60
2018-06-30T14:48:05.684Z,25.50
2018-06-30T14:50:35.818Z,25.50
2018-06-30T14:53:05.743Z,25.40
2018-06-30T14:55:35.485Z,25.30
2018-06-30T14:58:05.034Z,25.30
2018-06-30T15:00:34.498Z,25.20
2018-06-30T15:03:03.909Z,25.10
2018-06-30T15:05:35.796Z,25.00
2018-06-30T15:08:05.449Z,25.00
2018-06-30T15:10:35.118Z,24.90
2018-06-30T15:13:04.754Z,24.80
2018-06-30T15:15:34.712Z,24.80
2018-06-30T15:18:04.246Z,24.70
2018-06-30T15:20:33.838Z,24.60
2018-06-30T15:23:03.572Z,24.50
2018-06-30T15:25:34.255Z,24.50
2018-06-30T15:28:04.570Z,24.50
2018-06-30T15:30:34.868Z,24.40
2018-06-30T15:33:05.600Z,24.30
2018-06-30T15:35:36.114Z,24.30
2018-06-30T15:38:07.150Z,24.30
2018-06-30T15:40:37.603Z,24.20
2018-06-30T15:43:09.611Z,24.20
2018-06-30T15:45:41.862Z,24.20
2018-06-30T15:48:11.904Z,24.10
2018-06-30T15:50:41.529Z,24.10
2018-06-30T15:53:11.079Z,24.00
2018-06-30T15:55:40.885Z,23.80
2018-06-30T15:58:11.497Z,23.80
2018-06-30T16:00:41.170Z,23.80
2018-06-30T16:03:10.946Z,23.70
2018-06-30T16:05:40.591Z,23.70
2018-06-30T16:08:10.341Z,23.60
2018-06-30T16:10:40.338Z,23.60
2018-06-30T16:13:10.384Z,23.50
2018-06-30T16:15:40.134Z,23.40
2018-06-30T16:20:38.955Z,23.30
2018-06-30T16:23:08.345Z,23.30
2018-06-30T16:25:38.008Z,23.20
2018-06-30T16:28:08.114Z,23.10
2018-06-30T16:30:39.694Z,23.10
2018-06-30T16:33:09.752Z,23.00
2018-06-30T16:35:39.255Z,22.90
2018-06-30T16:38:09.626Z,22.90
2018-06-30T16:40:39.283Z,22.80
2018-06-30T16:43:09.154Z,22.80
2018-06-30T16:45:39.689Z,22.70
2018-06-30T16:48:09.232Z,22.60
2018-06-30T16:53:07.790Z,22.50
2018-06-30T16:55:37.352Z,22.40
2018-06-30T16:58:07.016Z,22.50
2018-06-30T17:00:37.701Z,22.40
2018-06-30T17:03:08.171Z,22.40
2018-06-30T17:05:38.355Z,22.20
2018-06-30T17:08:07.794Z,22.10
2018-06-30T17:10:37.493Z,22.00
2018-06-30T17:13:07.126Z,22.00
2018-06-30T17:15:36.420Z,21.90
2018-06-30T17:18:05.705Z,21.90
2018-06-30T17:20:35.295Z,21.80
2018-06-30T17:23:04.798Z,21.70
2018-06-30T17:25:34.783Z,21.60
2018-06-30T17:28:04.228Z,21.50
2018-06-30T17:30:33.690Z,21.50
2018-06-30T17:33:02.981Z,21.40
2018-06-30T17:35:32.320Z,21.30
2018-06-30T17:38:01.822Z,21.30
2018-06-30T17:40:31.226Z,21.20
2018-06-30T17:43:00.585Z,21.20
2018-06-30T17:45:29.897Z,21.10
2018-06-30T17:47:59.240Z,21.10
2018-06-30T17:50:28.681Z,21.00
2018-06-30T17:52:58.275Z,21.00
2018-06-30T17:55:28.801Z,20.90
2018-06-30T17:57:58.356Z,20.80
2018-06-30T18:00:27.879Z,20.80
2018-06-30T18:02:57.340Z,20.80
2018-06-30T18:05:27.390Z,20.70
2018-06-30T18:07:57.267Z,20.70
2018-06-30T18:10:32.026Z,20.60
2018-06-30T18:13:05.417Z,20.50
2018-06-30T18:15:36.099Z,20.40
2018-06-30T18:18:08.597Z,20.30
2018-06-30T18:20:38.290Z,20.30
2018-06-30T18:23:07.886Z,20.20
2018-06-30T18:25:37.341Z,20.10
2018-06-30T18:28:06.946Z,20.10
2018-06-30T18:30:37.955Z,20.10
2018-06-30T18:33:07.597Z,20.00
2018-06-30T18:35:37.578Z,20.00
2018-06-30T18:38:07.059Z,19.90
2018-06-30T18:40:36.517Z,19.90
2018-06-30T18:43:06.239Z,19.80
2018-06-30T18:48:05.551Z,19.60
2018-06-30T18:53:04.469Z,19.50
2018-06-30T18:55:34.605Z,19.50
2018-06-30T18:58:04.257Z,19.40
2018-06-30T19:00:33.924Z,19.40
2018-06-30T19:03:04.615Z,19.30
2018-06-30T19:05:34.112Z,19.30
2018-06-30T19:08:03.550Z,19.30
2018-06-30T19:10:32.967Z,19.20
2018-06-30T19:13:02.367Z,19.10
2018-06-30T19:15:31.794Z,19.10
2018-06-30T19:18:01.243Z,19.00
2018-06-30T19:20:30.592Z,18.90
2018-06-30T19:23:00.986Z,18.90
2018-06-30T19:25:30.393Z,18.80
2018-06-30T19:27:59.809Z,18.80
2018-06-30T19:30:29.182Z,18.70
2018-06-30T19:32:58.826Z,18.70
2018-06-30T19:35:28.115Z,18.70
2018-06-30T19:37:57.698Z,18.60
2018-06-30T19:40:27.104Z,18.60
2018-06-30T19:42:56.427Z,18.50
2018-06-30T19:45:25.642Z,18.50
2018-06-30T19:47:55.018Z,18.40
2018-06-30T19:50:24.454Z,18.40
2018-06-30T19:52:54.021Z,18.40
2018-06-30T19:55:23.590Z,18.30
2018-06-30T19:57:53.078Z,18.30
2018-06-30T20:00:22.711Z,18.20
2018-06-30T20:02:52.045Z,18.20
2018-06-30T20:05:21.488Z,18.10
2018-06-30T20:07:54.350Z,18.00
2018-06-30T20:10:24.449Z,18.00
2018-06-30T20:12:53.803Z,18.00
2018-06-30T20:15:23.248Z,17.90
2018-06-30T20:17:52.603Z,17.90
2018-06-30T20:20:22.024Z,17.90
2018-06-30T20:22:51.339Z,17.90
2018-06-30T20:25:20.754Z,17.80
2018-06-30T20:27:51.280Z,17.80
2018-06-30T20:30:20.721Z,17.80
2018-06-30T20:32:50.122Z,17.80
2018-06-30T20:35:19.572Z,17.80
2018-06-30T20:37:49.633Z,17.70
2018-06-30T20:40:19.839Z,17.70
2018-06-30T20:42:49.254Z,17.70
2018-06-30T20:45:18.697Z,17.60
2018-06-30T20:47:48.115Z,17.60
2018-06-30T20:50:17.436Z,17.60
2018-06-30T20:52:46.782Z,17.60
2018-06-30T20:55:16.278Z,17.50
2018-06-30T20:57:45.555Z,17.50
2018-06-30T21:00:14.957Z,17.50
2018-06-30T21:02:44.428Z,17.50
2018-06-30T21:05:13.940Z,17.40
2018-06-30T21:07:43.207Z,17.40
2018-06-30T21:10:12.523Z,17.40
2018-06-30T21:12:41.989Z,17.40
2018-06-30T21:15:11.445Z,17.30
2018-06-30T21:17:40.838Z,17.30
2018-06-30T21:20:10.379Z,17.20
2018-06-30T21:22:39.918Z,17.20
2018-06-30T21:25:09.569Z,17.20
2018-06-30T21:27:38.989Z,17.10
2018-06-30T21:30:08.440Z,17.10
2018-06-30T21:32:37.918Z,17.10
2018-06-30T21:35:07.225Z,17.10
2018-06-30T21:37:38.310Z,17.10
2018-06-30T21:40:08.799Z,17.00
2018-06-30T21:42:40.546Z,17.00
2018-06-30T21:45:10.955Z,17.00
2018-06-30T21:47:40.603Z,16.90
2018-06-30T21:50:10.529Z,16.90
2018-06-30T21:52:40.189Z,16.90
2018-06-30T21:55:11.232Z,16.80
2018-06-30T21:57:40.795Z,16.80
2018-06-30T22:00:13.558Z,16.80
2018-06-30T22:02:43.002Z,16.70
2018-06-30T22:05:12.592Z,16.60
2018-06-30T22:07:42.115Z,16.60
2018-06-30T22:10:11.609Z,16.50
2018-06-30T22:12:41.089Z,16.50
2018-06-30T22:15:10.582Z,16.50
2018-06-30T22:17:39.963Z,16.50
2018-06-30T22:20:09.607Z,16.40
2018-06-30T22:22:39.269Z,16.40
2018-06-30T22:25:08.815Z,16.30
2018-06-30T22:27:38.285Z,16.30
2018-06-30T22:30:07.657Z,16.20
2018-06-30T22:32:37.107Z,16.20
2018-06-30T22:35:07.146Z,16.20
2018-06-30T22:37:36.494Z,16.10
2018-06-30T22:40:13.286Z,16.00
2018-06-30T22:42:42.795Z,16.00
2018-06-30T22:45:11.998Z,15.90
2018-06-30T22:47:41.586Z,15.90
2018-06-30T22:50:10.943Z,15.90
2018-06-30T22:52:40.725Z,15.80
2018-06-30T22:55:10.138Z,15.80
2018-06-30T22:57:39.554Z,15.80
2018-06-30T23:00:10.934Z,15.70
2018-06-30T23:02:40.486Z,15.70
2018-06-30T23:05:10.117Z,15.60
2018-06-30T23:07:39.449Z,15.60
2018-06-30T23:10:09.513Z,15.60
2018-06-30T23:12:38.844Z,15.60
2018-06-30T23:15:08.513Z,15.60
2018-06-30T23:17:38.124Z,15.50
2018-06-30T23:20:08.020Z,15.50
2018-06-30T23:22:54.134Z,15.40
2018-06-30T23:25:24.222Z,15.40
2018-06-30T23:27:53.758Z,15.40
2018-06-30T23:30:23.374Z,15.30
2018-06-30T23:32:52.956Z,15.30
2018-06-30T23:35:23.843Z,15.30
2018-06-30T23:37:53.826Z,15.30
2018-06-30T23:40:23.441Z,15.30
2018-06-30T23:42:53.088Z,15.20
2018-06-30T23:45:22.896Z,15.20
2018-06-30T23:47:52.939Z,15.20
2018-06-30T23:50:22.466Z,15.20
2018-06-30T23:52:52.164Z,15.10
2018-06-30T23:55:21.988Z,15.10
2018-06-30T23:57:51.414Z,15.10
